sensor_id;sensor_type;location;lat;lon;timestamp;P1;durP1;ratioP1;P2;durP2;ratioP2
2055;SDS011;1033;52.560;13.374;2023-02-05T00:02:19;3.92;;;3.05;;
2055;SDS011;1033;52.560;13.374;2023-02-05T00:04:51;6.72;;;3.70;;
2055;SDS011;1033;52.560;13.374;2023-02-05T00:07:21;10.48;;;5.45;;
2055;SDS011;1033;52.560;13.374;2023-02-05T00:09:52;7.90;;;4.10;;
2055;SDS011;1033;52.560;13.374;2023-02-05T00:12:25;4.57;;;3.33;;
2055;SDS011;1033;52.560;13.374;2023-02-05T00:14:56;6.32;;;3.70;;
2055;SDS011;1033;52.560;13.374;2023-02-05T00:17:26;3.95;;;3.50;;
2055;SDS011;1033;52.560;13.374;2023-02-05T00:19:58;3.75;;;3.15;;
2055;SDS011;1033;52.560;13.374;2023-02-05T00:22:29;6.13;;;3.10;;
2055;SDS011;1033;52.560;13.374;2023-02-05T00:25:00;5.80;;;2.60;;
2055;SDS011;1033;52.560;13.374;2023-02-05T00:27:33;4.95;;;2.40;;
2055;SDS011;1033;52.560;13.374;2023-02-05T00:30:04;7.20;;;3.92;;
2055;SDS011;1033;52.560;13.374;2023-02-05T00:32:37;3.17;;;2.88;;
2055;SDS011;1033;52.560;13.374;2023-02-05T00:35:08;5.20;;;3.97;;
2055;SDS011;1033;52.560;13.374;2023-02-05T00:37:40;3.58;;;3.15;;
2055;SDS011;1033;52.560;13.374;2023-02-05T00:40:11;8.82;;;6.20;;
2055;SDS011;1033;52.560;13.374;2023-02-05T00:42:44;7.13;;;3.53;;
2055;SDS011;1033;52.560;13.374;2023-02-05T00:45:15;4.28;;;2.95;;
2055;SDS011;1033;52.560;13.374;2023-02-05T00:47:45;3.95;;;2.97;;
2055;SDS011;1033;52.560;13.374;2023-02-05T00:50:18;5.97;;;3.67;;
2055;SDS011;1033;52.560;13.374;2023-02-05T00:52:53;7.22;;;2.60;;
2055;SDS011;1033;52.560;13.374;2023-02-05T00:55:27;4.20;;;2.47;;
2055;SDS011;1033;52.560;13.374;2023-02-05T00:58:02;4.53;;;2.90;;
2055;SDS011;1033;52.560;13.374;2023-02-05T01:00:33;4.07;;;2.45;;
2055;SDS011;1033;52.560;13.374;2023-02-05T01:03:03;7.60;;;2.58;;
2055;SDS011;1033;52.560;13.374;2023-02-05T01:05:35;3.45;;;2.65;;
2055;SDS011;1033;52.560;13.374;2023-02-05T01:08:08;9.65;;;4.65;;
2055;SDS011;1033;52.560;13.374;2023-02-05T01:10:42;4.28;;;3.30;;
2055;SDS011;1033;52.560;13.374;2023-02-05T01:13:15;5.68;;;3.63;;
2055;SDS011;1033;52.560;13.374;2023-02-05T01:15:45;4.28;;;2.10;;
2055;SDS011;1033;52.560;13.374;2023-02-05T01:18:18;5.07;;;3.00;;
2055;SDS011;1033;52.560;13.374;2023-02-05T01:20:49;6.10;;;2.65;;
2055;SDS011;1033;52.560;13.374;2023-02-05T01:23:21;5.13;;;3.13;;
2055;SDS011;1033;52.560;13.374;2023-02-05T01:25:52;2.92;;;2.60;;
2055;SDS011;1033;52.560;13.374;2023-02-05T01:28:25;4.97;;;2.65;;
2055;SDS011;1033;52.560;13.374;2023-02-05T01:30:56;6.88;;;2.45;;
2055;SDS011;1033;52.560;13.374;2023-02-05T01:33:28;7.03;;;4.40;;
2055;SDS011;1033;52.560;13.374;2023-02-05T01:36:00;3.75;;;2.70;;
2055;SDS011;1033;52.560;13.374;2023-02-05T01:38:32;6.32;;;3.47;;
2055;SDS011;1033;52.560;13.374;2023-02-05T01:41:05;4.20;;;3.50;;
2055;SDS011;1033;52.560;13.374;2023-02-05T01:43:40;8.88;;;3.50;;
2055;SDS011;1033;52.560;13.374;2023-02-05T01:46:20;4.07;;;2.65;;
2055;SDS011;1033;52.560;13.374;2023-02-05T01:48:55;5.03;;;3.55;;
2055;SDS011;1033;52.560;13.374;2023-02-05T01:51:30;10.90;;;3.78;;
2055;SDS011;1033;52.560;13.374;2023-02-05T01:54:04;5.57;;;3.80;;
2055;SDS011;1033;52.560;13.374;2023-02-05T01:56:37;4.90;;;2.90;;
2055;SDS011;1033;52.560;13.374;2023-02-05T01:59:13;8.43;;;3.90;;
2055;SDS011;1033;52.560;13.374;2023-02-05T02:01:46;8.75;;;4.40;;
2055;SDS011;1033;52.560;13.374;2023-02-05T02:04:20;10.23;;;4.47;;
2055;SDS011;1033;52.560;13.374;2023-02-05T02:07:00;7.32;;;3.95;;
2055;SDS011;1033;52.560;13.374;2023-02-05T02:09:32;6.47;;;4.38;;
2055;SDS011;1033;52.560;13.374;2023-02-05T02:12:07;4.43;;;3.45;;
2055;SDS011;1033;52.560;13.374;2023-02-05T02:14:42;4.57;;;3.95;;
2055;SDS011;1033;52.560;13.374;2023-02-05T02:17:17;8.20;;;4.45;;
2055;SDS011;1033;52.560;13.374;2023-02-05T02:19:52;6.88;;;3.72;;
2055;SDS011;1033;52.560;13.374;2023-02-05T02:22:37;9.70;;;4.18;;
2055;SDS011;1033;52.560;13.374;2023-02-05T02:25:40;8.25;;;4.68;;
2055;SDS011;1033;52.560;13.374;2023-02-05T02:28:31;5.82;;;3.53;;
2055;SDS011;1033;52.560;13.374;2023-02-05T02:31:05;4.90;;;3.65;;
2055;SDS011;1033;52.560;13.374;2023-02-05T02:33:42;9.82;;;4.55;;
2055;SDS011;1033;52.560;13.374;2023-02-05T02:36:21;7.32;;;3.80;;
2055;SDS011;1033;52.560;13.374;2023-02-05T02:38:59;4.38;;;3.33;;
2055;SDS011;1033;52.560;13.374;2023-02-05T02:41:37;4.57;;;3.53;;
2055;SDS011;1033;52.560;13.374;2023-02-05T02:44:17;6.68;;;3.90;;
2055;SDS011;1033;52.560;13.374;2023-02-05T02:46:53;4.82;;;3.63;;
2055;SDS011;1033;52.560;13.374;2023-02-05T02:49:29;5.55;;;4.28;;
2055;SDS011;1033;52.560;13.374;2023-02-05T02:52:03;8.00;;;4.43;;
2055;SDS011;1033;52.560;13.374;2023-02-05T02:54:38;10.45;;;4.25;;
2055;SDS011;1033;52.560;13.374;2023-02-05T02:57:14;5.78;;;4.60;;
2055;SDS011;1033;52.560;13.374;2023-02-05T02:59:50;5.50;;;4.10;;
2055;SDS011;1033;52.560;13.374;2023-02-05T03:02:27;6.72;;;4.18;;
2055;SDS011;1033;52.560;13.374;2023-02-05T03:05:00;6.85;;;3.88;;
2055;SDS011;1033;52.560;13.374;2023-02-05T03:07:37;20.67;;;5.38;;
2055;SDS011;1033;52.560;13.374;2023-02-05T03:10:11;6.65;;;4.40;;
2055;SDS011;1033;52.560;13.374;2023-02-05T03:12:48;3.72;;;3.13;;
2055;SDS011;1033;52.560;13.374;2023-02-05T03:15:22;7.05;;;3.90;;
2055;SDS011;1033;52.560;13.374;2023-02-05T03:17:54;4.60;;;3.80;;
2055;SDS011;1033;52.560;13.374;2023-02-05T03:20:29;10.10;;;3.92;;
2055;SDS011;1033;52.560;13.374;2023-02-05T03:23:05;6.78;;;4.40;;
2055;SDS011;1033;52.560;13.374;2023-02-05T03:25:36;5.05;;;3.85;;
2055;SDS011;1033;52.560;13.374;2023-02-05T03:28:08;7.28;;;3.30;;
2055;SDS011;1033;52.560;13.374;2023-02-05T03:30:45;6.13;;;3.33;;
2055;SDS011;1033;52.560;13.374;2023-02-05T03:33:29;4.45;;;3.88;;
2055;SDS011;1033;52.560;13.374;2023-02-05T03:36:15;4.45;;;4.05;;
2055;SDS011;1033;52.560;13.374;2023-02-05T03:38:56;7.10;;;3.13;;
2055;SDS011;1033;52.560;13.374;2023-02-05T03:41:43;3.63;;;3.05;;
2055;SDS011;1033;52.560;13.374;2023-02-05T03:44:33;8.57;;;3.75;;
2055;SDS011;1033;52.560;13.374;2023-02-05T03:50:46;4.80;;;2.80;;
2055;SDS011;1033;52.560;13.374;2023-02-05T03:53:25;3.63;;;3.22;;
2055;SDS011;1033;52.560;13.374;2023-02-05T03:56:07;8.93;;;3.70;;
2055;SDS011;1033;52.560;13.374;2023-02-05T03:58:47;5.30;;;3.53;;
2055;SDS011;1033;52.560;13.374;2023-02-05T04:01:23;13.18;;;4.38;;
2055;SDS011;1033;52.560;13.374;2023-02-05T04:03:57;5.80;;;3.45;;
2055;SDS011;1033;52.560;13.374;2023-02-05T04:06:29;4.30;;;3.50;;
2055;SDS011;1033;52.560;13.374;2023-02-05T04:09:01;9.27;;;4.75;;
2055;SDS011;1033;52.560;13.374;2023-02-05T04:11:33;6.80;;;3.97;;
2055;SDS011;1033;52.560;13.374;2023-02-05T04:14:05;5.55;;;3.60;;
2055;SDS011;1033;52.560;13.374;2023-02-05T04:16:38;5.40;;;4.20;;
2055;SDS011;1033;52.560;13.374;2023-02-05T04:19:12;6.70;;;3.42;;
2055;SDS011;1033;52.560;13.374;2023-02-05T04:21:44;7.28;;;3.92;;
2055;SDS011;1033;52.560;13.374;2023-02-05T04:24:18;4.93;;;4.15;;
2055;SDS011;1033;52.560;13.374;2023-02-05T04:26:49;6.65;;;3.53;;
2055;SDS011;1033;52.560;13.374;2023-02-05T04:29:19;4.80;;;3.55;;
2055;SDS011;1033;52.560;13.374;2023-02-05T04:31:52;4.88;;;3.40;;
2055;SDS011;1033;52.560;13.374;2023-02-05T04:34:25;8.27;;;4.30;;
2055;SDS011;1033;52.560;13.374;2023-02-05T04:36:57;4.38;;;3.95;;
2055;SDS011;1033;52.560;13.374;2023-02-05T04:39:29;5.53;;;3.55;;
2055;SDS011;1033;52.560;13.374;2023-02-05T04:41:59;4.47;;;3.55;;
2055;SDS011;1033;52.560;13.374;2023-02-05T04:44:30;4.80;;;2.65;;
2055;SDS011;1033;52.560;13.374;2023-02-05T04:47:01;5.50;;;3.45;;
2055;SDS011;1033;52.560;13.374;2023-02-05T04:49:35;4.00;;;3.53;;
2055;SDS011;1033;52.560;13.374;2023-02-05T04:52:07;8.88;;;3.97;;
2055;SDS011;1033;52.560;13.374;2023-02-05T04:54:38;8.60;;;3.75;;
2055;SDS011;1033;52.560;13.374;2023-02-05T04:57:08;6.72;;;3.80;;
2055;SDS011;1033;52.560;13.374;2023-02-05T04:59:40;6.10;;;4.05;;
2055;SDS011;1033;52.560;13.374;2023-02-05T05:02:11;8.07;;;4.22;;
2055;SDS011;1033;52.560;13.374;2023-02-05T05:04:44;4.78;;;2.90;;
2055;SDS011;1033;52.560;13.374;2023-02-05T05:07:15;5.93;;;4.07;;
2055;SDS011;1033;52.560;13.374;2023-02-05T05:09:47;9.30;;;4.38;;
2055;SDS011;1033;52.560;13.374;2023-02-05T05:12:18;4.18;;;3.65;;
2055;SDS011;1033;52.560;13.374;2023-02-05T05:14:48;6.40;;;3.35;;
2055;SDS011;1033;52.560;13.374;2023-02-05T05:17:19;7.50;;;4.18;;
2055;SDS011;1033;52.560;13.374;2023-02-05T05:19:51;3.33;;;2.80;;
2055;SDS011;1033;52.560;13.374;2023-02-05T05:22:21;6.28;;;4.60;;
2055;SDS011;1033;52.560;13.374;2023-02-05T05:24:52;7.40;;;5.25;;
2055;SDS011;1033;52.560;13.374;2023-02-05T05:27:22;8.38;;;4.47;;
2055;SDS011;1033;52.560;13.374;2023-02-05T05:29:52;7.30;;;4.35;;
2055;SDS011;1033;52.560;13.374;2023-02-05T05:32:22;7.43;;;4.40;;
2055;SDS011;1033;52.560;13.374;2023-02-05T05:34:54;5.70;;;4.28;;
2055;SDS011;1033;52.560;13.374;2023-02-05T05:37:24;5.82;;;3.85;;
2055;SDS011;1033;52.560;13.374;2023-02-05T05:39:55;9.40;;;4.93;;
2055;SDS011;1033;52.560;13.374;2023-02-05T05:42:42;8.15;;;4.75;;
2055;SDS011;1033;52.560;13.374;2023-02-05T05:45:29;6.97;;;4.50;;
2055;SDS011;1033;52.560;13.374;2023-02-05T05:48:01;7.18;;;4.07;;
2055;SDS011;1033;52.560;13.374;2023-02-05T05:50:33;12.02;;;5.65;;
2055;SDS011;1033;52.560;13.374;2023-02-05T05:53:06;7.25;;;4.47;;
2055;SDS011;1033;52.560;13.374;2023-02-05T05:55:36;10.93;;;6.00;;
2055;SDS011;1033;52.560;13.374;2023-02-05T05:58:06;5.30;;;4.80;;
2055;SDS011;1033;52.560;13.374;2023-02-05T06:00:37;6.13;;;4.28;;
2055;SDS011;1033;52.560;13.374;2023-02-05T06:03:09;8.00;;;5.15;;
2055;SDS011;1033;52.560;13.374;2023-02-05T06:05:42;8.43;;;4.93;;
2055;SDS011;1033;52.560;13.374;2023-02-05T06:08:17;7.78;;;5.15;;
2055;SDS011;1033;52.560;13.374;2023-02-05T06:10:48;6.28;;;4.65;;
2055;SDS011;1033;52.560;13.374;2023-02-05T06:13:19;7.53;;;5.25;;
2055;SDS011;1033;52.560;13.374;2023-02-05T06:15:52;8.20;;;5.13;;
2055;SDS011;1033;52.560;13.374;2023-02-05T06:18:25;14.15;;;5.32;;
2055;SDS011;1033;52.560;13.374;2023-02-05T06:21:00;6.93;;;5.00;;
2055;SDS011;1033;52.560;13.374;2023-02-05T06:23:32;6.93;;;5.63;;
2055;SDS011;1033;52.560;13.374;2023-02-05T06:26:03;8.13;;;5.35;;
2055;SDS011;1033;52.560;13.374;2023-02-05T06:28:33;13.90;;;5.97;;
2055;SDS011;1033;52.560;13.374;2023-02-05T06:31:05;13.77;;;5.45;;
2055;SDS011;1033;52.560;13.374;2023-02-05T06:33:36;6.18;;;4.68;;
2055;SDS011;1033;52.560;13.374;2023-02-05T06:36:08;7.55;;;4.90;;
2055;SDS011;1033;52.560;13.374;2023-02-05T06:38:41;7.85;;;4.80;;
2055;SDS011;1033;52.560;13.374;2023-02-05T06:41:12;6.15;;;5.35;;
2055;SDS011;1033;52.560;13.374;2023-02-05T06:43:43;10.60;;;5.43;;
2055;SDS011;1033;52.560;13.374;2023-02-05T06:46:14;12.75;;;5.93;;
2055;SDS011;1033;52.560;13.374;2023-02-05T06:48:44;12.02;;;6.05;;
2055;SDS011;1033;52.560;13.374;2023-02-05T06:51:16;8.68;;;5.70;;
2055;SDS011;1033;52.560;13.374;2023-02-05T06:53:46;13.57;;;7.90;;
2055;SDS011;1033;52.560;13.374;2023-02-05T06:56:18;8.35;;;5.97;;
2055;SDS011;1033;52.560;13.374;2023-02-05T06:58:48;8.30;;;4.72;;
2055;SDS011;1033;52.560;13.374;2023-02-05T07:01:19;7.07;;;5.07;;
2055;SDS011;1033;52.560;13.374;2023-02-05T07:03:50;9.25;;;6.20;;
2055;SDS011;1033;52.560;13.374;2023-02-05T07:06:24;6.65;;;5.07;;
2055;SDS011;1033;52.560;13.374;2023-02-05T07:08:57;7.60;;;5.18;;
2055;SDS011;1033;52.560;13.374;2023-02-05T07:11:27;7.95;;;5.40;;
2055;SDS011;1033;52.560;13.374;2023-02-05T07:13:59;8.60;;;6.05;;
2055;SDS011;1033;52.560;13.374;2023-02-05T07:16:30;9.63;;;6.45;;
2055;SDS011;1033;52.560;13.374;2023-02-05T07:19:02;10.32;;;5.53;;
2055;SDS011;1033;52.560;13.374;2023-02-05T07:21:34;6.07;;;5.32;;
2055;SDS011;1033;52.560;13.374;2023-02-05T07:24:06;6.35;;;4.78;;
2055;SDS011;1033;52.560;13.374;2023-02-05T07:26:36;9.25;;;5.95;;
2055;SDS011;1033;52.560;13.374;2023-02-05T07:29:09;10.77;;;6.10;;
2055;SDS011;1033;52.560;13.374;2023-02-05T07:31:39;5.43;;;4.20;;
2055;SDS011;1033;52.560;13.374;2023-02-05T07:34:12;7.65;;;4.20;;
2055;SDS011;1033;52.560;13.374;2023-02-05T07:36:45;5.88;;;4.30;;
2055;SDS011;1033;52.560;13.374;2023-02-05T07:39:18;5.45;;;3.83;;
2055;SDS011;1033;52.560;13.374;2023-02-05T07:41:49;4.53;;;4.00;;
2055;SDS011;1033;52.560;13.374;2023-02-05T07:44:27;6.50;;;4.57;;
2055;SDS011;1033;52.560;13.374;2023-02-05T07:46:57;6.13;;;4.43;;
2055;SDS011;1033;52.560;13.374;2023-02-05T07:49:28;5.90;;;4.15;;
2055;SDS011;1033;52.560;13.374;2023-02-05T07:52:00;6.70;;;4.45;;
2055;SDS011;1033;52.560;13.374;2023-02-05T07:54:31;6.45;;;3.90;;
2055;SDS011;1033;52.560;13.374;2023-02-05T07:57:03;5.05;;;3.75;;
2055;SDS011;1033;52.560;13.374;2023-02-05T07:59:34;5.95;;;4.70;;
2055;SDS011;1033;52.560;13.374;2023-02-05T08:02:04;7.47;;;4.70;;
2055;SDS011;1033;52.560;13.374;2023-02-05T08:04:34;6.90;;;3.90;;
2055;SDS011;1033;52.560;13.374;2023-02-05T08:07:07;8.13;;;2.97;;
2055;SDS011;1033;52.560;13.374;2023-02-05T08:09:39;7.90;;;3.75;;
2055;SDS011;1033;52.560;13.374;2023-02-05T08:12:09;4.90;;;3.08;;
2055;SDS011;1033;52.560;13.374;2023-02-05T08:14:41;4.50;;;3.65;;
2055;SDS011;1033;52.560;13.374;2023-02-05T08:17:11;9.25;;;2.80;;
2055;SDS011;1033;52.560;13.374;2023-02-05T08:19:44;2.97;;;2.25;;
2055;SDS011;1033;52.560;13.374;2023-02-05T08:22:17;6.05;;;2.88;;
2055;SDS011;1033;52.560;13.374;2023-02-05T08:24:51;5.15;;;2.40;;
2055;SDS011;1033;52.560;13.374;2023-02-05T08:27:23;6.15;;;3.05;;
2055;SDS011;1033;52.560;13.374;2023-02-05T08:29:55;5.00;;;2.17;;
2055;SDS011;1033;52.560;13.374;2023-02-05T08:32:26;4.70;;;3.13;;
2055;SDS011;1033;52.560;13.374;2023-02-05T08:34:56;3.80;;;1.85;;
2055;SDS011;1033;52.560;13.374;2023-02-05T08:37:31;3.70;;;2.75;;
2055;SDS011;1033;52.560;13.374;2023-02-05T08:40:01;3.88;;;3.20;;
2055;SDS011;1033;52.560;13.374;2023-02-05T08:42:32;10.75;;;3.00;;
2055;SDS011;1033;52.560;13.374;2023-02-05T08:45:02;2.70;;;2.38;;
2055;SDS011;1033;52.560;13.374;2023-02-05T08:47:35;5.75;;;3.58;;
2055;SDS011;1033;52.560;13.374;2023-02-05T08:50:06;5.45;;;3.53;;
2055;SDS011;1033;52.560;13.374;2023-02-05T08:52:41;7.50;;;3.78;;
2055;SDS011;1033;52.560;13.374;2023-02-05T08:55:13;5.85;;;2.45;;
2055;SDS011;1033;52.560;13.374;2023-02-05T08:57:47;6.13;;;3.95;;
2055;SDS011;1033;52.560;13.374;2023-02-05T09:00:18;4.47;;;3.00;;
2055;SDS011;1033;52.560;13.374;2023-02-05T09:02:48;4.93;;;2.88;;
2055;SDS011;1033;52.560;13.374;2023-02-05T09:05:25;4.70;;;3.00;;
2055;SDS011;1033;52.560;13.374;2023-02-05T09:07:58;4.25;;;2.60;;
2055;SDS011;1033;52.560;13.374;2023-02-05T09:10:28;5.43;;;3.40;;
2055;SDS011;1033;52.560;13.374;2023-02-05T09:12:58;9.40;;;2.92;;
2055;SDS011;1033;52.560;13.374;2023-02-05T09:15:30;4.50;;;2.70;;
2055;SDS011;1033;52.560;13.374;2023-02-05T09:18:00;3.60;;;2.10;;
2055;SDS011;1033;52.560;13.374;2023-02-05T09:20:33;4.25;;;2.88;;
2055;SDS011;1033;52.560;13.374;2023-02-05T09:23:09;3.53;;;2.88;;
2055;SDS011;1033;52.560;13.374;2023-02-05T09:25:40;3.75;;;2.75;;
2055;SDS011;1033;52.560;13.374;2023-02-05T09:28:12;8.38;;;2.88;;
2055;SDS011;1033;52.560;13.374;2023-02-05T09:30:47;3.53;;;2.50;;
2055;SDS011;1033;52.560;13.374;2023-02-05T09:33:18;4.78;;;2.35;;
2055;SDS011;1033;52.560;13.374;2023-02-05T09:35:50;6.00;;;3.35;;
2055;SDS011;1033;52.560;13.374;2023-02-05T09:38:23;6.97;;;2.95;;
2055;SDS011;1033;52.560;13.374;2023-02-05T09:40:54;4.30;;;2.60;;
2055;SDS011;1033;52.560;13.374;2023-02-05T09:43:39;4.60;;;3.22;;
2055;SDS011;1033;52.560;13.374;2023-02-05T09:46:17;5.22;;;2.97;;
2055;SDS011;1033;52.560;13.374;2023-02-05T09:48:58;5.70;;;3.63;;
2055;SDS011;1033;52.560;13.374;2023-02-05T09:51:36;4.22;;;2.40;;
2055;SDS011;1033;52.560;13.374;2023-02-05T09:54:16;7.25;;;2.70;;
2055;SDS011;1033;52.560;13.374;2023-02-05T09:56:52;8.40;;;2.80;;
2055;SDS011;1033;52.560;13.374;2023-02-05T09:59:25;4.50;;;3.10;;
2055;SDS011;1033;52.560;13.374;2023-02-05T10:01:57;8.77;;;3.30;;
2055;SDS011;1033;52.560;13.374;2023-02-05T10:04:31;7.55;;;3.60;;
2055;SDS011;1033;52.560;13.374;2023-02-05T10:07:15;3.55;;;2.78;;
2055;SDS011;1033;52.560;13.374;2023-02-05T10:12:54;4.60;;;3.20;;
2055;SDS011;1033;52.560;13.374;2023-02-05T10:15:40;3.45;;;2.95;;
2055;SDS011;1033;52.560;13.374;2023-02-05T10:18:30;5.35;;;2.67;;
2055;SDS011;1033;52.560;13.374;2023-02-05T10:21:16;4.55;;;3.35;;
2055;SDS011;1033;52.560;13.374;2023-02-05T10:24:05;4.63;;;3.28;;
2055;SDS011;1033;52.560;13.374;2023-02-05T10:26:53;8.20;;;4.30;;
2055;SDS011;1033;52.560;13.374;2023-02-05T10:29:31;4.18;;;3.30;;
2055;SDS011;1033;52.560;13.374;2023-02-05T10:32:16;5.00;;;3.33;;
2055;SDS011;1033;52.560;13.374;2023-02-05T10:34:57;9.15;;;3.35;;
2055;SDS011;1033;52.560;13.374;2023-02-05T10:37:39;4.47;;;2.50;;
2055;SDS011;1033;52.560;13.374;2023-02-05T10:40:15;5.53;;;3.85;;
2055;SDS011;1033;52.560;13.374;2023-02-05T10:42:53;5.25;;;3.50;;
2055;SDS011;1033;52.560;13.374;2023-02-05T10:45:29;3.72;;;2.97;;
2055;SDS011;1033;52.560;13.374;2023-02-05T10:50:59;5.15;;;3.08;;
2055;SDS011;1033;52.560;13.374;2023-02-05T10:53:34;4.45;;;3.33;;
2055;SDS011;1033;52.560;13.374;2023-02-05T10:56:07;5.65;;;4.63;;
2055;SDS011;1033;52.560;13.374;2023-02-05T10:58:45;4.88;;;3.90;;
2055;SDS011;1033;52.560;13.374;2023-02-05T11:01:21;3.00;;;2.50;;
2055;SDS011;1033;52.560;13.374;2023-02-05T11:03:55;3.78;;;2.70;;
2055;SDS011;1033;52.560;13.374;2023-02-05T11:06:32;3.88;;;2.58;;
2055;SDS011;1033;52.560;13.374;2023-02-05T11:09:27;3.35;;;2.47;;
2055;SDS011;1033;52.560;13.374;2023-02-05T11:12:01;6.13;;;3.25;;
2055;SDS011;1033;52.560;13.374;2023-02-05T11:14:35;6.10;;;2.65;;
2055;SDS011;1033;52.560;13.374;2023-02-05T11:17:17;5.10;;;3.17;;
2055;SDS011;1033;52.560;13.374;2023-02-05T11:19:52;2.70;;;2.33;;
2055;SDS011;1033;52.560;13.374;2023-02-05T11:22:26;3.10;;;2.08;;
2055;SDS011;1033;52.560;13.374;2023-02-05T11:25:06;5.28;;;2.90;;
2055;SDS011;1033;52.560;13.374;2023-02-05T11:27:48;2.75;;;1.98;;
2055;SDS011;1033;52.560;13.374;2023-02-05T11:30:27;3.65;;;2.20;;
2055;SDS011;1033;52.560;13.374;2023-02-05T11:33:23;3.97;;;2.55;;
2055;SDS011;1033;52.560;13.374;2023-02-05T11:35:56;6.55;;;2.45;;
2055;SDS011;1033;52.560;13.374;2023-02-05T11:38:30;4.40;;;2.35;;
2055;SDS011;1033;52.560;13.374;2023-02-05T11:41:06;5.20;;;2.22;;
2055;SDS011;1033;52.560;13.374;2023-02-05T11:43:39;5.10;;;2.67;;
2055;SDS011;1033;52.560;13.374;2023-02-05T11:46:19;4.63;;;2.20;;
2055;SDS011;1033;52.560;13.374;2023-02-05T11:48:53;5.70;;;2.97;;
2055;SDS011;1033;52.560;13.374;2023-02-05T11:51:36;4.75;;;3.20;;
2055;SDS011;1033;52.560;13.374;2023-02-05T11:54:19;6.50;;;2.85;;
2055;SDS011;1033;52.560;13.374;2023-02-05T11:57:03;5.90;;;4.32;;
2055;SDS011;1033;52.560;13.374;2023-02-05T11:59:57;5.57;;;3.20;;
2055;SDS011;1033;52.560;13.374;2023-02-05T12:02:40;4.55;;;2.90;;
2055;SDS011;1033;52.560;13.374;2023-02-05T12:05:16;4.60;;;3.15;;
2055;SDS011;1033;52.560;13.374;2023-02-05T12:07:51;3.45;;;3.15;;
2055;SDS011;1033;52.560;13.374;2023-02-05T12:10:28;3.95;;;3.55;;
2055;SDS011;1033;52.560;13.374;2023-02-05T12:13:13;7.25;;;2.83;;
2055;SDS011;1033;52.560;13.374;2023-02-05T12:15:55;5.80;;;3.20;;
2055;SDS011;1033;52.560;13.374;2023-02-05T12:18:41;4.78;;;2.45;;
2055;SDS011;1033;52.560;13.374;2023-02-05T12:21:24;5.00;;;2.65;;
2055;SDS011;1033;52.560;13.374;2023-02-05T12:24:10;5.25;;;2.60;;
2055;SDS011;1033;52.560;13.374;2023-02-05T12:27:02;4.05;;;3.25;;
2055;SDS011;1033;52.560;13.374;2023-02-05T12:29:47;4.70;;;3.60;;
2055;SDS011;1033;52.560;13.374;2023-02-05T12:32:32;10.63;;;2.70;;
2055;SDS011;1033;52.560;13.374;2023-02-05T12:35:21;9.73;;;2.72;;
2055;SDS011;1033;52.560;13.374;2023-02-05T12:38:04;2.88;;;1.80;;
2055;SDS011;1033;52.560;13.374;2023-02-05T12:40:55;3.25;;;2.30;;
2055;SDS011;1033;52.560;13.374;2023-02-05T12:43:37;4.40;;;2.55;;
2055;SDS011;1033;52.560;13.374;2023-02-05T12:46:15;2.85;;;2.33;;
2055;SDS011;1033;52.560;13.374;2023-02-05T12:49:15;4.32;;;3.28;;
2055;SDS011;1033;52.560;13.374;2023-02-05T12:52:11;7.20;;;2.63;;
2055;SDS011;1033;52.560;13.374;2023-02-05T12:54:54;2.95;;;2.58;;
2055;SDS011;1033;52.560;13.374;2023-02-05T12:57:35;3.88;;;2.35;;
2055;SDS011;1033;52.560;13.374;2023-02-05T13:00:12;2.60;;;2.40;;
2055;SDS011;1033;52.560;13.374;2023-02-05T13:02:52;3.65;;;2.80;;
2055;SDS011;1033;52.560;13.374;2023-02-05T13:05:33;4.80;;;2.05;;
2055;SDS011;1033;52.560;13.374;2023-02-05T13:08:12;3.55;;;2.45;;
2055;SDS011;1033;52.560;13.374;2023-02-05T13:10:49;4.60;;;2.80;;
2055;SDS011;1033;52.560;13.374;2023-02-05T13:13:25;4.43;;;3.20;;
2055;SDS011;1033;52.560;13.374;2023-02-05T13:16:01;5.75;;;2.90;;
2055;SDS011;1033;52.560;13.374;2023-02-05T13:18:34;7.75;;;4.22;;
2055;SDS011;1033;52.560;13.374;2023-02-05T13:21:09;2.90;;;2.60;;
2055;SDS011;1033;52.560;13.374;2023-02-05T13:24:04;4.80;;;3.40;;
2055;SDS011;1033;52.560;13.374;2023-02-05T13:27:17;3.45;;;2.13;;
2055;SDS011;1033;52.560;13.374;2023-02-05T13:30:10;7.82;;;3.03;;
2055;SDS011;1033;52.560;13.374;2023-02-05T13:32:45;6.95;;;4.40;;
2055;SDS011;1033;52.560;13.374;2023-02-05T13:35:21;4.90;;;3.10;;
2055;SDS011;1033;52.560;13.374;2023-02-05T13:38:06;8.50;;;3.60;;
2055;SDS011;1033;52.560;13.374;2023-02-05T13:40:58;3.38;;;3.08;;
2055;SDS011;1033;52.560;13.374;2023-02-05T13:44:05;6.07;;;3.03;;
2055;SDS011;1033;52.560;13.374;2023-02-05T13:50:04;4.82;;;3.58;;
2055;SDS011;1033;52.560;13.374;2023-02-05T13:59:31;3.53;;;2.33;;
2055;SDS011;1033;52.560;13.374;2023-02-05T14:02:19;3.75;;;2.45;;
2055;SDS011;1033;52.560;13.374;2023-02-05T14:04:57;3.58;;;2.22;;
2055;SDS011;1033;52.560;13.374;2023-02-05T14:07:30;4.40;;;2.95;;
2055;SDS011;1033;52.560;13.374;2023-02-05T14:10:05;4.65;;;3.25;;
2055;SDS011;1033;52.560;13.374;2023-02-05T14:12:52;4.65;;;2.75;;
2055;SDS011;1033;52.560;13.374;2023-02-05T14:15:40;2.08;;;1.88;;
2055;SDS011;1033;52.560;13.374;2023-02-05T14:18:43;3.20;;;2.08;;
2055;SDS011;1033;52.560;13.374;2023-02-05T14:24:25;4.38;;;2.08;;
2055;SDS011;1033;52.560;13.374;2023-02-05T14:27:23;4.15;;;2.33;;
2055;SDS011;1033;52.560;13.374;2023-02-05T14:30:47;3.35;;;2.28;;
2055;SDS011;1033;52.560;13.374;2023-02-05T14:33:33;10.13;;;3.13;;
2055;SDS011;1033;52.560;13.374;2023-02-05T14:39:04;4.78;;;2.92;;
2055;SDS011;1033;52.560;13.374;2023-02-05T14:41:49;6.38;;;2.85;;
2055;SDS011;1033;52.560;13.374;2023-02-05T14:44:26;4.43;;;2.55;;
2055;SDS011;1033;52.560;13.374;2023-02-05T14:47:01;3.85;;;2.20;;
2055;SDS011;1033;52.560;13.374;2023-02-05T14:49:35;6.25;;;4.10;;
2055;SDS011;1033;52.560;13.374;2023-02-05T14:52:23;5.55;;;2.45;;
2055;SDS011;1033;52.560;13.374;2023-02-05T14:54:57;3.55;;;2.33;;
2055;SDS011;1033;52.560;13.374;2023-02-05T14:57:38;9.02;;;2.50;;
2055;SDS011;1033;52.560;13.374;2023-02-05T15:00:29;4.25;;;1.73;;
2055;SDS011;1033;52.560;13.374;2023-02-05T15:03:24;4.78;;;2.90;;
2055;SDS011;1033;52.560;13.374;2023-02-05T15:06:04;2.92;;;2.40;;
2055;SDS011;1033;52.560;13.374;2023-02-05T15:08:43;5.97;;;2.60;;
2055;SDS011;1033;52.560;13.374;2023-02-05T15:11:21;3.22;;;2.45;;
2055;SDS011;1033;52.560;13.374;2023-02-05T15:20:19;3.33;;;2.13;;
2055;SDS011;1033;52.560;13.374;2023-02-05T15:22:54;3.40;;;2.10;;
2055;SDS011;1033;52.560;13.374;2023-02-05T15:25:38;3.38;;;2.22;;
2055;SDS011;1033;52.560;13.374;2023-02-05T15:28:17;3.63;;;1.80;;
2055;SDS011;1033;52.560;13.374;2023-02-05T15:31:08;6.68;;;2.70;;
2055;SDS011;1033;52.560;13.374;2023-02-05T15:33:55;2.30;;;1.80;;
2055;SDS011;1033;52.560;13.374;2023-02-05T15:37:04;2.95;;;1.92;;
2055;SDS011;1033;52.560;13.374;2023-02-05T15:39:49;5.13;;;2.70;;
2055;SDS011;1033;52.560;13.374;2023-02-05T15:42:26;7.38;;;3.28;;
2055;SDS011;1033;52.560;13.374;2023-02-05T15:45:14;6.88;;;3.20;;
2055;SDS011;1033;52.560;13.374;2023-02-05T15:47:55;4.05;;;2.53;;
2055;SDS011;1033;52.560;13.374;2023-02-05T15:50:28;5.38;;;2.97;;
2055;SDS011;1033;52.560;13.374;2023-02-05T15:53:02;4.78;;;2.50;;
2055;SDS011;1033;52.560;13.374;2023-02-05T15:55:38;5.22;;;3.08;;
2055;SDS011;1033;52.560;13.374;2023-02-05T15:58:09;6.57;;;3.22;;
2055;SDS011;1033;52.560;13.374;2023-02-05T16:00:44;3.78;;;2.67;;
2055;SDS011;1033;52.560;13.374;2023-02-05T16:03:23;6.03;;;3.40;;
2055;SDS011;1033;52.560;13.374;2023-02-05T16:05:55;6.97;;;3.63;;
2055;SDS011;1033;52.560;13.374;2023-02-05T16:08:28;5.95;;;2.80;;
2055;SDS011;1033;52.560;13.374;2023-02-05T16:10:59;5.20;;;3.88;;
2055;SDS011;1033;52.560;13.374;2023-02-05T16:13:32;7.20;;;2.95;;
2055;SDS011;1033;52.560;13.374;2023-02-05T16:16:03;6.60;;;2.95;;
2055;SDS011;1033;52.560;13.374;2023-02-05T16:18:38;5.35;;;2.55;;
2055;SDS011;1033;52.560;13.374;2023-02-05T16:21:17;5.40;;;3.28;;
2055;SDS011;1033;52.560;13.374;2023-02-05T16:23:53;7.13;;;4.88;;
2055;SDS011;1033;52.560;13.374;2023-02-05T16:26:27;8.27;;;2.78;;
2055;SDS011;1033;52.560;13.374;2023-02-05T16:29:04;4.85;;;3.00;;